sensor_id;sensor_type;location;lat;lon;timestamp;P1;durP1;ratioP1;P2;durP2;ratioP2
6392;SDS011;3229;42.674;23.282;2023-01-13T00:02:17;4.47;;;4.07;;
6392;SDS011;3229;42.674;23.282;2023-01-13T00:04:43;4.40;;;4.00;;
6392;SDS011;3229;42.674;23.282;2023-01-13T00:07:11;4.23;;;3.83;;
6392;SDS011;3229;42.674;23.282;2023-01-13T00:09:40;3.80;;;3.50;;
6392;SDS011;3229;42.674;23.282;2023-01-13T00:12:06;4.60;;;4.20;;
6392;SDS011;3229;42.674;23.282;2023-01-13T00:14:33;4.20;;;3.80;;
6392;SDS011;3229;42.674;23.282;2023-01-13T00:17:00;3.83;;;3.50;;
6392;SDS011;3229;42.674;23.282;2023-01-13T00:19:27;3.80;;;3.40;;
6392;SDS011;3229;42.674;23.282;2023-01-13T00:21:54;5.10;;;3.97;;
6392;SDS011;3229;42.674;23.282;2023-01-13T00:24:20;4.13;;;3.73;;
6392;SDS011;3229;42.674;23.282;2023-01-13T00:26:49;4.70;;;3.80;;
6392;SDS011;3229;42.674;23.282;2023-01-13T00:29:16;3.73;;;3.43;;
6392;SDS011;3229;42.674;23.282;2023-01-13T00:31:43;4.20;;;3.77;;
6392;SDS011;3229;42.674;23.282;2023-01-13T00:34:10;4.33;;;3.93;;
6392;SDS011;3229;42.674;23.282;2023-01-13T00:36:37;4.53;;;4.00;;
6392;SDS011;3229;42.674;23.282;2023-01-13T00:39:03;4.30;;;3.90;;
6392;SDS011;3229;42.674;23.282;2023-01-13T00:41:30;5.13;;;4.37;;
6392;SDS011;3229;42.674;23.282;2023-01-13T00:44:18;4.00;;;3.63;;
6392;SDS011;3229;42.674;23.282;2023-01-13T00:46:44;4.47;;;4.07;;
6392;SDS011;3229;42.674;23.282;2023-01-13T00:49:11;5.00;;;4.50;;
6392;SDS011;3229;42.674;23.282;2023-01-13T00:51:38;4.80;;;4.40;;
6392;SDS011;3229;42.674;23.282;2023-01-13T00:54:04;5.40;;;4.53;;
6392;SDS011;3229;42.674;23.282;2023-01-13T00:56:32;4.70;;;4.30;;
6392;SDS011;3229;42.674;23.282;2023-01-13T00:58:58;5.30;;;4.27;;
6392;SDS011;3229;42.674;23.282;2023-01-13T01:01:27;4.83;;;3.90;;
6392;SDS011;3229;42.674;23.282;2023-01-13T01:03:54;5.20;;;4.27;;
6392;SDS011;3229;42.674;23.282;2023-01-13T01:06:23;5.20;;;4.70;;
6392;SDS011;3229;42.674;23.282;2023-01-13T01:08:51;4.57;;;4.17;;
6392;SDS011;3229;42.674;23.282;2023-01-13T01:11:20;4.73;;;3.63;;
6392;SDS011;3229;42.674;23.282;2023-01-13T01:13:48;4.53;;;4.13;;
6392;SDS011;3229;42.674;23.282;2023-01-13T01:16:17;4.70;;;4.30;;
6392;SDS011;3229;42.674;23.282;2023-01-13T01:18:47;4.33;;;3.93;;
6392;SDS011;3229;42.674;23.282;2023-01-13T01:21:15;4.77;;;4.37;;
6392;SDS011;3229;42.674;23.282;2023-01-13T01:23:43;4.70;;;4.30;;
6392;SDS011;3229;42.674;23.282;2023-01-13T01:26:11;4.27;;;3.87;;
6392;SDS011;3229;42.674;23.282;2023-01-13T01:28:39;4.20;;;3.80;;
6392;SDS011;3229;42.674;23.282;2023-01-13T01:31:07;4.50;;;4.10;;
6392;SDS011;3229;42.674;23.282;2023-01-13T01:33:35;4.53;;;4.13;;
6392;SDS011;3229;42.674;23.282;2023-01-13T01:36:03;4.53;;;3.97;;
6392;SDS011;3229;42.674;23.282;2023-01-13T01:38:30;4.33;;;3.93;;
6392;SDS011;3229;42.674;23.282;2023-01-13T01:40:57;4.97;;;4.47;;
6392;SDS011;3229;42.674;23.282;2023-01-13T01:46:24;5.07;;;4.53;;
6392;SDS011;3229;42.674;23.282;2023-01-13T01:48:55;4.37;;;3.97;;
6392;SDS011;3229;42.674;23.282;2023-01-13T01:51:29;4.77;;;4.37;;
6392;SDS011;3229;42.674;23.282;2023-01-13T01:53:59;4.60;;;4.20;;
6392;SDS011;3229;42.674;23.282;2023-01-13T01:56:30;4.40;;;4.00;;
6392;SDS011;3229;42.674;23.282;2023-01-13T01:58:58;5.30;;;4.33;;
6392;SDS011;3229;42.674;23.282;2023-01-13T02:01:25;4.60;;;4.20;;
6392;SDS011;3229;42.674;23.282;2023-01-13T02:03:54;4.33;;;3.93;;
6392;SDS011;3229;42.674;23.282;2023-01-13T02:06:26;4.60;;;4.20;;
6392;SDS011;3229;42.674;23.282;2023-01-13T02:08:56;4.83;;;4.33;;
6392;SDS011;3229;42.674;23.282;2023-01-13T02:11:31;5.17;;;4.47;;
6392;SDS011;3229;42.674;23.282;2023-01-13T02:14:16;5.17;;;4.50;;
6392;SDS011;3229;42.674;23.282;2023-01-13T02:16:49;4.60;;;4.20;;
6392;SDS011;3229;42.674;23.282;2023-01-13T02:22:41;4.97;;;4.47;;
6392;SDS011;3229;42.674;23.282;2023-01-13T02:25:29;4.63;;;3.97;;
6392;SDS011;3229;42.674;23.282;2023-01-13T02:28:15;4.53;;;4.10;;
6392;SDS011;3229;42.674;23.282;2023-01-13T02:30:57;4.77;;;4.07;;
6392;SDS011;3229;42.674;23.282;2023-01-13T02:33:49;4.37;;;3.97;;
6392;SDS011;3229;42.674;23.282;2023-01-13T02:36:28;4.57;;;4.17;;
6392;SDS011;3229;42.674;23.282;2023-01-13T02:39:03;4.70;;;3.90;;
6392;SDS011;3229;42.674;23.282;2023-01-13T02:41:38;4.20;;;3.80;;
6392;SDS011;3229;42.674;23.282;2023-01-13T02:44:30;4.77;;;4.30;;
6392;SDS011;3229;42.674;23.282;2023-01-13T02:47:05;4.60;;;4.20;;
6392;SDS011;3229;42.674;23.282;2023-01-13T02:49:36;4.60;;;4.20;;
6392;SDS011;3229;42.674;23.282;2023-01-13T02:52:10;4.63;;;4.23;;
6392;SDS011;3229;42.674;23.282;2023-01-13T02:54:41;5.10;;;4.60;;
6392;SDS011;3229;42.674;23.282;2023-01-13T02:57:11;4.90;;;4.40;;
6392;SDS011;3229;42.674;23.282;2023-01-13T02:59:42;4.60;;;4.20;;
6392;SDS011;3229;42.674;23.282;2023-01-13T03:02:11;4.20;;;3.80;;
6392;SDS011;3229;42.674;23.282;2023-01-13T03:04:44;4.90;;;4.50;;
6392;SDS011;3229;42.674;23.282;2023-01-13T03:07:17;5.13;;;4.63;;
6392;SDS011;3229;42.674;23.282;2023-01-13T03:09:57;3.93;;;3.53;;
6392;SDS011;3229;42.674;23.282;2023-01-13T03:12:33;4.93;;;4.43;;
6392;SDS011;3229;42.674;23.282;2023-01-13T03:15:09;4.47;;;4.07;;
6392;SDS011;3229;42.674;23.282;2023-01-13T03:17:45;3.87;;;3.57;;
6392;SDS011;3229;42.674;23.282;2023-01-13T03:20:19;5.40;;;4.50;;
6392;SDS011;3229;42.674;23.282;2023-01-13T03:22:50;5.10;;;4.33;;
6392;SDS011;3229;42.674;23.282;2023-01-13T03:25:26;4.33;;;3.93;;
6392;SDS011;3229;42.674;23.282;2023-01-13T03:27:56;4.30;;;3.90;;
6392;SDS011;3229;42.674;23.282;2023-01-13T03:30:26;4.60;;;4.10;;
6392;SDS011;3229;42.674;23.282;2023-01-13T03:33:00;4.43;;;4.03;;
6392;SDS011;3229;42.674;23.282;2023-01-13T03:35:31;4.17;;;3.77;;
6392;SDS011;3229;42.674;23.282;2023-01-13T03:38:02;4.50;;;4.10;;
6392;SDS011;3229;42.674;23.282;2023-01-13T03:40:32;5.90;;;4.33;;
6392;SDS011;3229;42.674;23.282;2023-01-13T03:43:05;5.07;;;4.57;;
6392;SDS011;3229;42.674;23.282;2023-01-13T03:45:54;4.17;;;3.77;;
6392;SDS011;3229;42.674;23.282;2023-01-13T03:48:26;4.07;;;3.67;;
6392;SDS011;3229;42.674;23.282;2023-01-13T03:50:55;5.17;;;4.23;;
6392;SDS011;3229;42.674;23.282;2023-01-13T03:53:29;4.37;;;3.97;;
6392;SDS011;3229;42.674;23.282;2023-01-13T03:55:58;4.23;;;3.83;;
6392;SDS011;3229;42.674;23.282;2023-01-13T03:58:31;4.27;;;3.87;;
6392;SDS011;3229;42.674;23.282;2023-01-13T04:01:04;4.00;;;3.60;;
6392;SDS011;3229;42.674;23.282;2023-01-13T04:03:40;3.87;;;3.57;;
6392;SDS011;3229;42.674;23.282;2023-01-13T04:06:13;4.07;;;3.53;;
6392;SDS011;3229;42.674;23.282;2023-01-13T04:08:44;3.80;;;3.50;;
6392;SDS011;3229;42.674;23.282;2023-01-13T04:11:17;4.10;;;3.70;;
6392;SDS011;3229;42.674;23.282;2023-01-13T04:13:47;4.13;;;3.73;;
6392;SDS011;3229;42.674;23.282;2023-01-13T04:16:15;4.20;;;3.80;;
6392;SDS011;3229;42.674;23.282;2023-01-13T04:18:43;4.60;;;4.20;;
6392;SDS011;3229;42.674;23.282;2023-01-13T04:21:10;4.70;;;4.13;;
6392;SDS011;3229;42.674;23.282;2023-01-13T04:23:37;4.20;;;3.80;;
6392;SDS011;3229;42.674;23.282;2023-01-13T04:26:04;5.10;;;3.87;;
6392;SDS011;3229;42.674;23.282;2023-01-13T04:28:31;4.10;;;3.70;;
6392;SDS011;3229;42.674;23.282;2023-01-13T04:30:59;3.87;;;3.57;;
6392;SDS011;3229;42.674;23.282;2023-01-13T04:33:25;4.03;;;3.67;;
6392;SDS011;3229;42.674;23.282;2023-01-13T04:35:54;3.60;;;3.30;;
6392;SDS011;3229;42.674;23.282;2023-01-13T04:38:20;3.80;;;3.50;;
6392;SDS011;3229;42.674;23.282;2023-01-13T04:40:47;4.07;;;3.73;;
6392;SDS011;3229;42.674;23.282;2023-01-13T04:43:14;4.17;;;3.77;;
6392;SDS011;3229;42.674;23.282;2023-01-13T04:45:42;3.57;;;3.30;;
6392;SDS011;3229;42.674;23.282;2023-01-13T04:48:09;3.80;;;3.50;;
6392;SDS011;3229;42.674;23.282;2023-01-13T04:50:36;4.03;;;3.63;;
6392;SDS011;3229;42.674;23.282;2023-01-13T04:53:04;4.43;;;3.73;;
6392;SDS011;3229;42.674;23.282;2023-01-13T04:55:31;3.77;;;3.47;;
6392;SDS011;3229;42.674;23.282;2023-01-13T04:58:02;4.13;;;3.73;;
6392;SDS011;3229;42.674;23.282;2023-01-13T05:00:30;4.00;;;3.60;;
6392;SDS011;3229;42.674;23.282;2023-01-13T05:02:57;3.73;;;3.43;;
6392;SDS011;3229;42.674;23.282;2023-01-13T05:05:24;4.20;;;3.80;;
6392;SDS011;3229;42.674;23.282;2023-01-13T05:07:51;3.90;;;3.60;;
6392;SDS011;3229;42.674;23.282;2023-01-13T05:10:19;3.70;;;3.40;;
6392;SDS011;3229;42.674;23.282;2023-01-13T05:12:46;4.23;;;3.83;;
6392;SDS011;3229;42.674;23.282;2023-01-13T05:15:31;3.97;;;3.67;;
6392;SDS011;3229;42.674;23.282;2023-01-13T05:18:15;3.83;;;3.40;;
6392;SDS011;3229;42.674;23.282;2023-01-13T05:20:43;3.70;;;3.40;;
6392;SDS011;3229;42.674;23.282;2023-01-13T05:23:10;4.80;;;3.70;;
6392;SDS011;3229;42.674;23.282;2023-01-13T05:25:56;4.20;;;3.80;;
6392;SDS011;3229;42.674;23.282;2023-01-13T05:28:22;4.07;;;3.50;;
6392;SDS011;3229;42.674;23.282;2023-01-13T05:30:49;4.53;;;4.13;;
6392;SDS011;3229;42.674;23.282;2023-01-13T05:33:17;4.20;;;3.80;;
6392;SDS011;3229;42.674;23.282;2023-01-13T05:35:46;4.73;;;3.97;;
6392;SDS011;3229;42.674;23.282;2023-01-13T05:38:13;4.53;;;4.10;;
6392;SDS011;3229;42.674;23.282;2023-01-13T05:40:42;4.10;;;3.70;;
6392;SDS011;3229;42.674;23.282;2023-01-13T05:43:28;6.43;;;4.43;;
6392;SDS011;3229;42.674;23.282;2023-01-13T05:45:57;4.67;;;4.27;;
6392;SDS011;3229;42.674;23.282;2023-01-13T05:48:26;5.00;;;4.30;;
6392;SDS011;3229;42.674;23.282;2023-01-13T05:50:54;4.20;;;3.83;;
6392;SDS011;3229;42.674;23.282;2023-01-13T05:53:21;4.93;;;4.53;;
6392;SDS011;3229;42.674;23.282;2023-01-13T05:55:49;5.20;;;3.93;;
6392;SDS011;3229;42.674;23.282;2023-01-13T05:58:16;5.80;;;4.50;;
6392;SDS011;3229;42.674;23.282;2023-01-13T06:00:46;4.77;;;4.27;;
6392;SDS011;3229;42.674;23.282;2023-01-13T06:03:13;4.87;;;4.47;;
6392;SDS011;3229;42.674;23.282;2023-01-13T06:05:40;4.87;;;4.37;;
6392;SDS011;3229;42.674;23.282;2023-01-13T06:08:08;5.50;;;4.40;;
6392;SDS011;3229;42.674;23.282;2023-01-13T06:10:34;5.50;;;4.97;;
6392;SDS011;3229;42.674;23.282;2023-01-13T06:13:02;7.37;;;4.37;;
6392;SDS011;3229;42.674;23.282;2023-01-13T06:15:29;8.73;;;5.43;;
6392;SDS011;3229;42.674;23.282;2023-01-13T06:18:00;5.63;;;4.93;;
6392;SDS011;3229;42.674;23.282;2023-01-13T06:20:27;4.80;;;4.03;;
6392;SDS011;3229;42.674;23.282;2023-01-13T06:22:54;7.30;;;4.60;;
6392;SDS011;3229;42.674;23.282;2023-01-13T06:25:22;6.17;;;4.43;;
6392;SDS011;3229;42.674;23.282;2023-01-13T06:27:55;8.20;;;4.13;;
6392;SDS011;3229;42.674;23.282;2023-01-13T06:30:24;5.37;;;4.83;;
6392;SDS011;3229;42.674;23.282;2023-01-13T06:32:54;6.67;;;4.80;;
6392;SDS011;3229;42.674;23.282;2023-01-13T06:35:27;6.03;;;4.60;;
6392;SDS011;3229;42.674;23.282;2023-01-13T06:37:58;5.43;;;4.93;;
6392;SDS011;3229;42.674;23.282;2023-01-13T06:40:28;6.03;;;5.37;;
6392;SDS011;3229;42.674;23.282;2023-01-13T06:42:55;8.13;;;5.50;;
6392;SDS011;3229;42.674;23.282;2023-01-13T06:45:41;7.07;;;5.57;;
6392;SDS011;3229;42.674;23.282;2023-01-13T06:48:12;6.40;;;5.00;;
6392;SDS011;3229;42.674;23.282;2023-01-13T06:50:39;6.17;;;5.57;;
6392;SDS011;3229;42.674;23.282;2023-01-13T06:53:07;5.67;;;5.03;;
6392;SDS011;3229;42.674;23.282;2023-01-13T06:55:33;5.43;;;4.83;;
6392;SDS011;3229;42.674;23.282;2023-01-13T06:58:00;6.17;;;5.27;;
6392;SDS011;3229;42.674;23.282;2023-01-13T07:00:27;6.20;;;4.93;;
6392;SDS011;3229;42.674;23.282;2023-01-13T07:03:03;5.37;;;4.80;;
6392;SDS011;3229;42.674;23.282;2023-01-13T07:05:32;6.00;;;5.40;;
6392;SDS011;3229;42.674;23.282;2023-01-13T07:07:59;6.27;;;5.13;;
6392;SDS011;3229;42.674;23.282;2023-01-13T07:10:26;6.50;;;5.00;;
6392;SDS011;3229;42.674;23.282;2023-01-13T07:12:53;6.60;;;5.83;;
6392;SDS011;3229;42.674;23.282;2023-01-13T07:15:40;6.90;;;5.77;;
6392;SDS011;3229;42.674;23.282;2023-01-13T07:18:07;8.47;;;5.80;;
6392;SDS011;3229;42.674;23.282;2023-01-13T07:20:35;6.67;;;5.87;;
6392;SDS011;3229;42.674;23.282;2023-01-13T07:23:02;6.50;;;5.57;;
6392;SDS011;3229;42.674;23.282;2023-01-13T07:25:28;6.63;;;5.83;;
6392;SDS011;3229;42.674;23.282;2023-01-13T07:27:56;7.03;;;5.93;;
6392;SDS011;3229;42.674;23.282;2023-01-13T07:30:23;14.13;;;5.70;;
6392;SDS011;3229;42.674;23.282;2023-01-13T07:32:50;7.60;;;4.80;;
6392;SDS011;3229;42.674;23.282;2023-01-13T07:35:17;4.83;;;4.30;;
6392;SDS011;3229;42.674;23.282;2023-01-13T07:37:48;7.27;;;4.37;;
6392;SDS011;3229;42.674;23.282;2023-01-13T07:40:15;8.13;;;4.77;;
6392;SDS011;3229;42.674;23.282;2023-01-13T07:42:42;6.60;;;5.33;;
6392;SDS011;3229;42.674;23.282;2023-01-13T07:45:27;5.93;;;4.67;;
6392;SDS011;3229;42.674;23.282;2023-01-13T07:47:53;6.57;;;4.73;;
6392;SDS011;3229;42.674;23.282;2023-01-13T07:50:20;10.00;;;4.60;;
6392;SDS011;3229;42.674;23.282;2023-01-13T07:52:49;5.20;;;4.70;;
6392;SDS011;3229;42.674;23.282;2023-01-13T07:55:16;7.13;;;4.67;;
6392;SDS011;3229;42.674;23.282;2023-01-13T07:57:43;5.17;;;4.63;;
6392;SDS011;3229;42.674;23.282;2023-01-13T08:00:10;5.20;;;4.70;;
6392;SDS011;3229;42.674;23.282;2023-01-13T08:02:38;7.63;;;5.03;;
6392;SDS011;3229;42.674;23.282;2023-01-13T08:05:05;7.23;;;4.90;;
6392;SDS011;3229;42.674;23.282;2023-01-13T08:07:32;5.63;;;4.57;;
6392;SDS011;3229;42.674;23.282;2023-01-13T08:10:01;6.17;;;4.93;;
6392;SDS011;3229;42.674;23.282;2023-01-13T08:12:27;6.03;;;4.83;;
6392;SDS011;3229;42.674;23.282;2023-01-13T08:15:12;6.73;;;5.30;;
6392;SDS011;3229;42.674;23.282;2023-01-13T08:17:39;7.60;;;4.93;;
6392;SDS011;3229;42.674;23.282;2023-01-13T08:20:06;5.67;;;4.83;;
6392;SDS011;3229;42.674;23.282;2023-01-13T08:22:34;5.63;;;5.07;;
6392;SDS011;3229;42.674;23.282;2023-01-13T08:25:02;6.40;;;5.20;;
6392;SDS011;3229;42.674;23.282;2023-01-13T08:27:30;5.97;;;5.17;;
6392;SDS011;3229;42.674;23.282;2023-01-13T08:29:56;5.43;;;4.90;;
6392;SDS011;3229;42.674;23.282;2023-01-13T08:32:23;5.27;;;4.77;;
6392;SDS011;3229;42.674;23.282;2023-01-13T08:34:50;6.20;;;4.97;;
6392;SDS011;3229;42.674;23.282;2023-01-13T08:37:17;5.17;;;4.70;;
6392;SDS011;3229;42.674;23.282;2023-01-13T08:39:43;6.03;;;4.90;;
6392;SDS011;3229;42.674;23.282;2023-01-13T08:42:12;6.50;;;5.20;;
6392;SDS011;3229;42.674;23.282;2023-01-13T08:44:38;5.50;;;4.97;;
6392;SDS011;3229;42.674;23.282;2023-01-13T08:47:05;5.77;;;5.07;;
6392;SDS011;3229;42.674;23.282;2023-01-13T08:49:32;5.97;;;5.20;;
6392;SDS011;3229;42.674;23.282;2023-01-13T08:51:59;6.33;;;4.83;;
6392;SDS011;3229;42.674;23.282;2023-01-13T08:54:26;5.67;;;4.47;;
6392;SDS011;3229;42.674;23.282;2023-01-13T08:56:52;8.37;;;5.03;;
6392;SDS011;3229;42.674;23.282;2023-01-13T08:59:21;5.10;;;4.60;;
6392;SDS011;3229;42.674;23.282;2023-01-13T09:01:47;5.17;;;4.67;;
6392;SDS011;3229;42.674;23.282;2023-01-13T09:04:16;5.37;;;4.50;;
6392;SDS011;3229;42.674;23.282;2023-01-13T09:06:44;5.07;;;4.53;;
6392;SDS011;3229;42.674;23.282;2023-01-13T09:09:12;6.07;;;4.60;;
6392;SDS011;3229;42.674;23.282;2023-01-13T09:11:41;4.13;;;3.73;;
6392;SDS011;3229;42.674;23.282;2023-01-13T09:14:30;4.37;;;3.97;;
6392;SDS011;3229;42.674;23.282;2023-01-13T09:16:58;5.53;;;4.30;;
6392;SDS011;3229;42.674;23.282;2023-01-13T09:19:25;4.67;;;3.80;;
6392;SDS011;3229;42.674;23.282;2023-01-13T09:21:53;5.47;;;4.10;;
6392;SDS011;3229;42.674;23.282;2023-01-13T09:24:20;4.73;;;3.60;;
6392;SDS011;3229;42.674;23.282;2023-01-13T09:26:47;4.40;;;3.93;;
6392;SDS011;3229;42.674;23.282;2023-01-13T09:29:14;5.20;;;3.93;;
6392;SDS011;3229;42.674;23.282;2023-01-13T09:31:43;5.07;;;3.90;;
6392;SDS011;3229;42.674;23.282;2023-01-13T09:34:12;3.50;;;3.20;;
6392;SDS011;3229;42.674;23.282;2023-01-13T09:36:57;4.10;;;3.70;;
6392;SDS011;3229;42.674;23.282;2023-01-13T09:39:24;5.20;;;3.90;;
6392;SDS011;3229;42.674;23.282;2023-01-13T09:41:52;5.53;;;4.20;;
6392;SDS011;3229;42.674;23.282;2023-01-13T09:44:41;5.40;;;4.03;;
6392;SDS011;3229;42.674;23.282;2023-01-13T09:47:16;3.80;;;3.50;;
6392;SDS011;3229;42.674;23.282;2023-01-13T09:49:46;6.53;;;4.10;;
6392;SDS011;3229;42.674;23.282;2023-01-13T09:52:14;4.03;;;3.60;;
6392;SDS011;3229;42.674;23.282;2023-01-13T09:54:45;3.73;;;3.43;;
6392;SDS011;3229;42.674;23.282;2023-01-13T09:57:16;4.87;;;4.13;;
6392;SDS011;3229;42.674;23.282;2023-01-13T09:59:44;4.43;;;3.90;;
6392;SDS011;3229;42.674;23.282;2023-01-13T10:02:24;4.13;;;3.70;;
6392;SDS011;3229;42.674;23.282;2023-01-13T10:05:03;6.10;;;3.87;;
6392;SDS011;3229;42.674;23.282;2023-01-13T10:07:35;4.50;;;4.10;;
6392;SDS011;3229;42.674;23.282;2023-01-13T10:10:07;4.30;;;3.70;;
6392;SDS011;3229;42.674;23.282;2023-01-13T10:12:42;4.57;;;4.17;;
6392;SDS011;3229;42.674;23.282;2023-01-13T10:15:30;7.53;;;3.90;;
6392;SDS011;3229;42.674;23.282;2023-01-13T10:17:59;4.63;;;4.20;;
6392;SDS011;3229;42.674;23.282;2023-01-13T10:20:33;4.33;;;3.83;;
6392;SDS011;3229;42.674;23.282;2023-01-13T10:23:10;4.10;;;3.70;;
6392;SDS011;3229;42.674;23.282;2023-01-13T10:25:59;5.13;;;3.60;;
6392;SDS011;3229;42.674;23.282;2023-01-13T10:28:32;4.43;;;4.00;;
6392;SDS011;3229;42.674;23.282;2023-01-13T10:30:59;5.03;;;3.73;;
6392;SDS011;3229;42.674;23.282;2023-01-13T10:33:29;4.33;;;3.93;;
6392;SDS011;3229;42.674;23.282;2023-01-13T10:35:57;4.60;;;3.50;;
6392;SDS011;3229;42.674;23.282;2023-01-13T10:38:27;3.87;;;3.47;;
6392;SDS011;3229;42.674;23.282;2023-01-13T10:40:56;4.13;;;3.73;;
6392;SDS011;3229;42.674;23.282;2023-01-13T10:43:24;5.47;;;3.60;;
6392;SDS011;3229;42.674;23.282;2023-01-13T10:45:55;3.80;;;3.43;;
6392;SDS011;3229;42.674;23.282;2023-01-13T10:48:31;4.07;;;3.67;;
6392;SDS011;3229;42.674;23.282;2023-01-13T10:51:19;6.13;;;3.33;;
6392;SDS011;3229;42.674;23.282;2023-01-13T10:53:50;3.63;;;3.27;;
6392;SDS011;3229;42.674;23.282;2023-01-13T10:56:19;4.33;;;3.77;;
6392;SDS011;3229;42.674;23.282;2023-01-13T10:58:46;3.90;;;3.53;;
6392;SDS011;3229;42.674;23.282;2023-01-13T11:01:18;3.53;;;3.23;;
6392;SDS011;3229;42.674;23.282;2023-01-13T11:03:51;4.20;;;3.80;;
6392;SDS011;3229;42.674;23.282;2023-01-13T11:06:20;4.03;;;3.67;;
6392;SDS011;3229;42.674;23.282;2023-01-13T11:08:49;4.23;;;3.60;;
6392;SDS011;3229;42.674;23.282;2023-01-13T11:14:20;4.03;;;3.40;;
6392;SDS011;3229;42.674;23.282;2023-01-13T11:17:02;4.53;;;3.70;;
6392;SDS011;3229;42.674;23.282;2023-01-13T11:19:47;3.50;;;3.20;;
6392;SDS011;3229;42.674;23.282;2023-01-13T11:22:19;3.53;;;3.23;;
6392;SDS011;3229;42.674;23.282;2023-01-13T11:24:52;3.73;;;3.43;;
6392;SDS011;3229;42.674;23.282;2023-01-13T11:27:23;5.47;;;3.70;;
6392;SDS011;3229;42.674;23.282;2023-01-13T11:30:02;4.03;;;3.40;;
6392;SDS011;3229;42.674;23.282;2023-01-13T11:32:43;3.73;;;3.27;;
6392;SDS011;3229;42.674;23.282;2023-01-13T11:35:26;3.90;;;3.50;;
6392;SDS011;3229;42.674;23.282;2023-01-13T11:37:58;4.10;;;3.40;;
6392;SDS011;3229;42.674;23.282;2023-01-13T11:40:31;4.10;;;3.70;;
6392;SDS011;3229;42.674;23.282;2023-01-13T11:43:03;4.03;;;3.53;;
6392;SDS011;3229;42.674;23.282;2023-01-13T11:45:39;4.27;;;3.80;;
6392;SDS011;3229;42.674;23.282;2023-01-13T11:48:11;4.90;;;3.37;;
6392;SDS011;3229;42.674;23.282;2023-01-13T11:50:45;3.53;;;3.23;;
6392;SDS011;3229;42.674;23.282;2023-01-13T11:53:27;4.23;;;3.57;;
6392;SDS011;3229;42.674;23.282;2023-01-13T11:56:08;5.27;;;3.93;;
6392;SDS011;3229;42.674;23.282;2023-01-13T12:01:54;3.93;;;3.53;;
6392;SDS011;3229;42.674;23.282;2023-01-13T12:04:32;4.50;;;3.90;;
6392;SDS011;3229;42.674;23.282;2023-01-13T12:07:12;4.60;;;4.00;;
6392;SDS011;3229;42.674;23.282;2023-01-13T12:09:55;5.40;;;3.30;;
6392;SDS011;3229;42.674;23.282;2023-01-13T12:12:37;3.60;;;3.30;;
6392;SDS011;3229;42.674;23.282;2023-01-13T12:18:36;4.10;;;3.70;;
6392;SDS011;3229;42.674;23.282;2023-01-13T12:21:16;4.43;;;3.90;;
6392;SDS011;3229;42.674;23.282;2023-01-13T12:23:49;3.93;;;3.53;;
6392;SDS011;3229;42.674;23.282;2023-01-13T12:26:23;4.83;;;3.90;;
6392;SDS011;3229;42.674;23.282;2023-01-13T12:28:52;3.67;;;3.30;;
6392;SDS011;3229;42.674;23.282;2023-01-13T12:31:23;5.27;;;3.87;;
6392;SDS011;3229;42.674;23.282;2023-01-13T12:34:05;4.77;;;4.07;;
6392;SDS011;3229;42.674;23.282;2023-01-13T12:36:48;4.80;;;3.33;;
6392;SDS011;3229;42.674;23.282;2023-01-13T12:39:25;4.20;;;3.60;;
6392;SDS011;3229;42.674;23.282;2023-01-13T12:42:04;5.10;;;3.93;;
6392;SDS011;3229;42.674;23.282;2023-01-13T12:45:04;4.20;;;3.60;;
6392;SDS011;3229;42.674;23.282;2023-01-13T12:47:34;4.13;;;3.73;;
6392;SDS011;3229;42.674;23.282;2023-01-13T12:56:24;4.40;;;4.00;;
6392;SDS011;3229;42.674;23.282;2023-01-13T13:08:04;3.80;;;3.50;;
6392;SDS011;3229;42.674;23.282;2023-01-13T13:10:39;4.13;;;3.73;;
6392;SDS011;3229;42.674;23.282;2023-01-13T13:13:20;3.93;;;3.53;;
6392;SDS011;3229;42.674;23.282;2023-01-13T13:22:16;4.30;;;3.20;;
6392;SDS011;3229;42.674;23.282;2023-01-13T13:27:53;3.67;;;3.30;;
6392;SDS011;3229;42.674;23.282;2023-01-13T13:30:28;4.77;;;3.57;;
6392;SDS011;3229;42.674;23.282;2023-01-13T13:33:01;4.87;;;4.37;;
6392;SDS011;3229;42.674;23.282;2023-01-13T13:35:44;3.90;;;3.60;;
6392;SDS011;3229;42.674;23.282;2023-01-13T13:38:24;3.90;;;3.50;;
6392;SDS011;3229;42.674;23.282;2023-01-13T13:41:21;4.17;;;3.60;;
6392;SDS011;3229;42.674;23.282;2023-01-13T13:44:10;4.33;;;3.43;;
6392;SDS011;3229;42.674;23.282;2023-01-13T13:47:00;3.53;;;3.20;;
6392;SDS011;3229;42.674;23.282;2023-01-13T13:49:35;8.43;;;3.60;;
6392;SDS011;3229;42.674;23.282;2023-01-13T13:52:05;3.73;;;3.23;;
6392;SDS011;3229;42.674;23.282;2023-01-13T13:54:39;4.47;;;3.70;;
6392;SDS011;3229;42.674;23.282;2023-01-13T13:57:13;4.63;;;3.27;;
6392;SDS011;3229;42.674;23.282;2023-01-13T13:59:43;5.63;;;3.43;;
6392;SDS011;3229;42.674;23.282;2023-01-13T14:02:15;3.73;;;3.30;;
6392;SDS011;3229;42.674;23.282;2023-01-13T14:04:45;5.00;;;3.57;;
6392;SDS011;3229;42.674;23.282;2023-01-13T14:07:15;3.90;;;3.50;;
6392;SDS011;3229;42.674;23.282;2023-01-13T14:09:45;4.57;;;3.60;;
6392;SDS011;3229;42.674;23.282;2023-01-13T14:12:15;3.90;;;3.40;;
6392;SDS011;3229;42.674;23.282;2023-01-13T14:14:44;4.27;;;3.53;;
6392;SDS011;3229;42.674;23.282;2023-01-13T14:17:20;4.00;;;3.60;;
6392;SDS011;3229;42.674;23.282;2023-01-13T14:19:50;3.73;;;3.43;;
6392;SDS011;3229;42.674;23.282;2023-01-13T14:22:18;3.33;;;3.03;;
6392;SDS011;3229;42.674;23.282;2023-01-13T14:24:45;4.17;;;3.27;;
6392;SDS011;3229;42.674;23.282;2023-01-13T14:27:19;4.27;;;3.40;;
6392;SDS011;3229;42.674;23.282;2023-01-13T14:29:47;4.30;;;3.80;;
6392;SDS011;3229;42.674;23.282;2023-01-13T14:32:18;3.77;;;3.33;;
6392;SDS011;3229;42.674;23.282;2023-01-13T14:34:50;3.87;;;3.53;;
6392;SDS011;3229;42.674;23.282;2023-01-13T14:37:21;4.47;;;4.07;;
6392;SDS011;3229;42.674;23.282;2023-01-13T14:39:50;4.07;;;3.67;;
6392;SDS011;3229;42.674;23.282;2023-01-13T14:42:17;5.20;;;4.20;;
6392;SDS011;3229;42.674;23.282;2023-01-13T14:44:45;4.43;;;4.03;;
6392;SDS011;3229;42.674;23.282;2023-01-13T14:47:17;4.83;;;4.43;;
6392;SDS011;3229;42.674;23.282;2023-01-13T14:49:50;5.37;;;4.30;;
6392;SDS011;3229;42.674;23.282;2023-01-13T14:52:23;4.87;;;4.40;;
6392;SDS011;3229;42.674;23.282;2023-01-13T14:54:52;5.77;;;4.67;;
6392;SDS011;3229;42.674;23.282;2023-01-13T14:57:37;5.77;;;4.67;;
6392;SDS011;3229;42.674;23.282;2023-01-13T15:00:16;6.57;;;5.13;;
6392;SDS011;3229;42.674;23.282;2023-01-13T15:02:48;6.43;;;4.80;;
6392;SDS011;3229;42.674;23.282;2023-01-13T15:05:36;9.07;;;5.20;;
6392;SDS011;3229;42.674;23.282;2023-01-13T15:11:03;6.23;;;5.03;;
6392;SDS011;3229;42.674;23.282;2023-01-13T15:13:34;7.20;;;5.70;;
6392;SDS011;3229;42.674;23.282;2023-01-13T15:16:05;6.40;;;4.90;;
6392;SDS011;3229;42.674;23.282;2023-01-13T15:18:40;7.30;;;5.97;;
6392;SDS011;3229;42.674;23.282;2023-01-13T15:21:07;7.47;;;6.37;;
6392;SDS011;3229;42.674;23.282;2023-01-13T15:23:35;7.30;;;6.00;;
6392;SDS011;3229;42.674;23.282;2023-01-13T15:26:05;8.93;;;6.40;;
6392;SDS011;3229;42.674;23.282;2023-01-13T15:28:42;10.67;;;7.70;;
6392;SDS011;3229;42.674;23.282;2023-01-13T15:31:08;8.80;;;6.50;;
6392;SDS011;3229;42.674;23.282;2023-01-13T15:33:35;10.93;;;7.20;;
6392;SDS011;3229;42.674;23.282;2023-01-13T15:36:04;10.57;;;7.23;;
6392;SDS011;3229;42.674;23.282;2023-01-13T15:38:42;10.27;;;6.80;;
6392;SDS011;3229;42.674;23.282;2023-01-13T15:41:09;10.53;;;7.27;;
6392;SDS011;3229;42.674;23.282;2023-01-13T15:43:36;10.70;;;7.60;;
6392;SDS011;3229;42.674;23.282;2023-01-13T15:46:20;10.07;;;7.50;;
6392;SDS011;3229;42.674;23.282;2023-01-13T15:49:06;12.03;;;7.20;;
6392;SDS011;3229;42.674;23.282;2023-01-13T15:51:43;10.50;;;8.10;;
6392;SDS011;3229;42.674;23.282;2023-01-13T15:54:10;9.57;;;7.40;;
6392;SDS011;3229;42.674;23.282;2023-01-13T15:56:37;12.23;;;8.57;;
6392;SDS011;3229;42.674;23.282;2023-01-13T15:59:08;13.47;;;8.47;;
6392;SDS011;3229;42.674;23.282;2023-01-13T16:01:41;12.53;;;8.93;;
6392;SDS011;3229;42.674;23.282;2023-01-13T16:04:08;12.17;;;8.20;;
6392;SDS011;3229;42.674;23.282;2023-01-13T16:06:35;12.27;;;8.37;;
6392;SDS011;3229;42.674;23.282;2023-01-13T16:09:03;13.77;;;9.90;;
6392;SDS011;3229;42.674;23.282;2023-01-13T16:11:31;13.67;;;9.10;;